createdAt,value
2019-03-05T00:00:32.586Z,8.85
2019-03-05T00:05:36.136Z,8.65
2019-03-05T00:10:39.675Z,8.15
2019-03-05T00:15:44.129Z,8.08
2019-03-05T00:20:47.649Z,7.81
2019-03-05T00:25:51.206Z,7.74
2019-03-05T00:31:00.847Z,7.59
2019-03-05T00:36:13.727Z,7.60
2019-03-05T00:41:26.272Z,7.49
2019-03-05T00:46:35.788Z,7.56
2019-03-05T00:51:54.622Z,7.52
2019-03-05T00:57:01.256Z,7.31
2019-03-05T01:02:16.910Z,7.38
2019-03-05T01:07:20.425Z,7.24
2019-03-05T01:12:24.185Z,7.11
2019-03-05T01:17:27.743Z,7.17
2019-03-05T01:22:31.259Z,7.19
2019-03-05T01:27:34.824Z,7.10
2019-03-05T01:32:42.735Z,7.18
2019-03-05T01:37:46.264Z,7.04
2019-03-05T01:42:49.828Z,7.00
2019-03-05T01:47:53.385Z,7.04
2019-03-05T01:52:56.948Z,7.04
2019-03-05T01:58:00.495Z,7.04
2019-03-05T02:03:05.110Z,7.00
2019-03-05T02:08:08.638Z,7.10
2019-03-05T02:13:12.204Z,7.07
2019-03-05T02:18:18.858Z,7.16
2019-03-05T02:23:31.283Z,7.03
2019-03-05T02:28:43.611Z,7.15
2019-03-05T02:33:59.070Z,7.10
2019-03-05T02:39:08.520Z,7.14
2019-03-05T02:44:33.713Z,7.09
2019-03-05T02:50:13.733Z,7.11
2019-03-05T02:55:32.508Z,7.07
2019-03-05T03:00:37.642Z,7.01
2019-03-05T03:05:45.854Z,7.05
2019-03-05T03:10:49.423Z,7.19
2019-03-05T03:15:52.950Z,7.24
2019-03-05T03:20:56.517Z,7.37
2019-03-05T03:26:00.104Z,7.28
2019-03-05T03:31:03.641Z,7.23
2019-03-05T03:36:07.189Z,7.24
2019-03-05T03:41:10.711Z,7.18
2019-03-05T03:46:14.263Z,7.20
2019-03-05T03:51:17.843Z,7.10
2019-03-05T03:56:21.366Z,7.20
2019-03-05T04:01:24.931Z,7.19
2019-03-05T04:06:28.487Z,7.06
2019-03-05T04:11:32.026Z,6.96
2019-03-05T04:16:35.560Z,6.90
2019-03-05T04:21:39.154Z,6.93
2019-03-05T04:26:42.697Z,6.82
2019-03-05T04:31:46.252Z,6.87
2019-03-05T04:36:49.811Z,6.87
2019-03-05T04:41:53.370Z,6.81
2019-03-05T04:46:56.928Z,6.75
2019-03-05T04:52:08.068Z,6.82
2019-03-05T04:57:11.590Z,6.74
2019-03-05T05:02:15.727Z,6.77
2019-03-05T05:07:19.288Z,6.66
2019-03-05T05:12:22.815Z,6.64
2019-03-05T05:17:26.347Z,6.71
2019-03-05T05:22:29.902Z,6.63
2019-03-05T05:27:33.481Z,6.57
2019-03-05T05:32:37.007Z,6.48
2019-03-05T05:37:40.540Z,6.49
2019-03-05T05:42:44.074Z,6.38
2019-03-05T05:47:47.648Z,6.42
2019-03-05T05:52:51.220Z,6.51
2019-03-05T05:57:54.772Z,6.78
2019-03-05T06:02:58.317Z,6.89
2019-03-05T06:08:01.905Z,6.94
2019-03-05T06:13:05.448Z,7.47
2019-03-05T06:18:09.057Z,7.89
2019-03-05T06:23:12.597Z,7.98
2019-03-05T06:28:16.182Z,8.55
2019-03-05T06:33:19.749Z,8.39
2019-03-05T06:38:23.288Z,9.50
2019-03-05T06:43:27.155Z,9.64
2019-03-05T06:48:30.802Z,15.27
2019-03-05T06:53:34.401Z,12.45
2019-03-05T06:58:37.932Z,10.96
2019-03-05T07:03:41.476Z,10.14
2019-03-05T07:08:48.225Z,9.56
2019-03-05T07:13:54.385Z,9.94
2019-03-05T07:18:59.655Z,15.94
2019-03-05T07:24:24.264Z,11.91
2019-03-05T07:29:27.888Z,11.56
2019-03-05T07:34:33.024Z,12.38
2019-03-05T07:39:36.588Z,12.05
2019-03-05T07:44:40.124Z,13.69
2019-03-05T07:49:44.435Z,11.34
2019-03-05T07:54:48.134Z,10.86
2019-03-05T07:59:51.676Z,10.84
2019-03-05T08:04:55.242Z,10.12
2019-03-05T08:10:02.848Z,9.78
2019-03-05T08:15:15.245Z,9.88
2019-03-05T08:20:18.804Z,10.03
2019-03-05T08:25:22.399Z,10.27
2019-03-05T08:30:25.907Z,10.29
2019-03-05T08:35:29.488Z,10.42
2019-03-05T08:40:33.341Z,10.93
2019-03-05T08:45:36.880Z,11.04
2019-03-05T08:50:40.416Z,10.76
2019-03-05T08:55:43.960Z,10.99
2019-03-05T09:00:48.263Z,11.58
2019-03-05T09:05:51.888Z,11.33
2019-03-05T09:10:55.430Z,12.47
2019-03-05T09:15:58.966Z,11.75
2019-03-05T09:21:02.506Z,12.01
2019-03-05T09:26:06.078Z,12.48
2019-03-05T09:31:09.630Z,12.51
2019-03-05T09:36:13.185Z,14.53
2019-03-05T09:41:16.731Z,12.17
2019-03-05T09:46:20.288Z,11.86
2019-03-05T09:51:23.853Z,11.45
2019-03-05T09:56:28.965Z,11.50
2019-03-05T10:01:32.548Z,12.40
2019-03-05T10:06:36.089Z,12.01
2019-03-05T10:11:39.670Z,12.00
2019-03-05T10:16:43.190Z,11.68
2019-03-05T10:21:46.820Z,10.92
2019-03-05T10:26:50.395Z,11.50
2019-03-05T10:31:53.940Z,10.98
2019-03-05T10:36:57.504Z,11.55
2019-03-05T10:42:01.073Z,11.52
2019-03-05T10:47:04.975Z,11.74
2019-03-05T10:52:08.544Z,11.86
2019-03-05T10:57:12.214Z,11.66
2019-03-05T11:02:15.956Z,11.33
2019-03-05T11:07:19.492Z,11.04
2019-03-05T11:12:23.021Z,10.14
2019-03-05T11:17:26.579Z,11.03
2019-03-05T11:22:30.155Z,11.55
2019-03-05T11:27:33.721Z,11.47
2019-03-05T11:32:37.343Z,11.45
2019-03-05T11:37:40.913Z,12.25
2019-03-05T11:42:44.483Z,11.97
2019-03-05T11:47:48.704Z,11.68
2019-03-05T11:52:52.219Z,10.79
2019-03-05T11:57:55.787Z,10.86
2019-03-05T12:02:59.313Z,11.14
2019-03-05T12:08:02.850Z,10.47
2019-03-05T12:13:06.440Z,10.59
2019-03-05T12:18:10.278Z,10.33
2019-03-05T12:23:13.819Z,10.95
2019-03-05T12:28:17.364Z,11.16
2019-03-05T12:33:20.910Z,11.69
2019-03-05T12:38:24.465Z,11.54
2019-03-05T12:43:28.025Z,12.11
2019-03-05T12:48:39.631Z,11.65
2019-03-05T12:53:36.896Z,12.03
2019-03-05T12:58:40.447Z,11.63
2019-03-05T13:03:44.008Z,11.60
2019-03-05T13:08:47.626Z,11.12
2019-03-05T13:14:01.850Z,10.87
2019-03-05T13:18:58.379Z,10.56
2019-03-05T13:24:01.718Z,10.79
2019-03-05T13:29:05.289Z,10.77
2019-03-05T13:34:08.840Z,10.32
2019-03-05T13:39:12.404Z,10.55
2019-03-05T13:44:32.115Z,10.79
2019-03-05T13:49:59.831Z,11.23
2019-03-05T13:55:04.722Z,10.62
2019-03-05T14:00:12.078Z,11.67
2019-03-05T14:05:21.848Z,11.85
2019-03-05T14:10:26.312Z,11.70
2019-03-05T14:15:30.000Z,11.54
2019-03-05T14:20:35.187Z,11.54
2019-03-05T14:25:38.874Z,11.44
2019-03-05T14:30:42.550Z,11.45
2019-03-05T14:35:47.570Z,10.93
2019-03-05T14:40:51.474Z,10.60
2019-03-05T14:45:55.171Z,16.63
2019-03-05T14:50:58.759Z,21.09
2019-03-05T14:56:02.411Z,21.29
2019-03-05T15:01:06.519Z,21.25
2019-03-05T15:06:10.288Z,21.08
2019-03-05T15:11:15.490Z,20.98
2019-03-05T15:16:19.216Z,21.32
2019-03-05T15:21:22.954Z,21.95
2019-03-05T15:26:26.595Z,22.52
2019-03-05T15:31:30.341Z,22.77
2019-03-05T15:36:34.576Z,22.99
2019-03-05T15:41:38.276Z,23.07
2019-03-05T15:46:41.979Z,23.03
2019-03-05T15:51:45.797Z,22.99
2019-03-05T15:56:49.408Z,22.89
2019-03-05T16:01:53.022Z,22.72
2019-03-05T16:06:56.661Z,22.86
2019-03-05T16:12:00.213Z,22.49
2019-03-05T16:17:04.794Z,22.35
2019-03-05T16:22:08.365Z,22.15
2019-03-05T16:27:11.936Z,21.85
2019-03-05T16:32:23.008Z,21.81
2019-03-05T16:37:42.712Z,21.63
2019-03-05T16:42:52.092Z,21.28
2019-03-05T16:47:57.342Z,6.99
2019-03-05T16:53:02.509Z,6.42
2019-03-05T16:58:23.883Z,6.29
2019-03-05T17:03:41.172Z,6.13
2019-03-05T17:08:52.114Z,5.89
2019-03-05T17:13:55.696Z,5.96
2019-03-05T17:18:59.584Z,5.94
2019-03-05T17:24:03.385Z,6.31
2019-03-05T17:29:07.214Z,6.17
2019-03-05T17:34:11.240Z,5.95
2019-03-05T17:39:16.608Z,5.71
2019-03-05T17:44:20.229Z,5.58
2019-03-05T17:49:23.837Z,5.42
2019-03-05T17:54:27.727Z,5.46
2019-03-05T17:59:31.273Z,5.44
2019-03-05T18:04:34.835Z,5.45
2019-03-05T18:09:38.385Z,5.99
2019-03-05T18:14:41.950Z,5.89
2019-03-05T18:19:45.703Z,5.57
2019-03-05T18:24:49.273Z,5.63
2019-03-05T18:29:53.082Z,5.52
2019-03-05T18:34:56.657Z,5.52
2019-03-05T18:40:00.405Z,5.81
2019-03-05T18:45:05.979Z,5.90
2019-03-05T18:50:12.923Z,5.63
2019-03-05T18:55:23.804Z,5.51
2019-03-05T19:00:33.974Z,5.50
2019-03-05T19:05:37.547Z,5.40
2019-03-05T19:10:41.153Z,5.30
2019-03-05T19:15:44.708Z,5.34
2019-03-05T19:20:48.283Z,5.27
2019-03-05T19:25:51.870Z,5.32
2019-03-05T19:30:55.451Z,5.13
2019-03-05T19:35:59.046Z,5.12
2019-03-05T19:41:02.584Z,5.06
2019-03-05T19:46:06.114Z,5.15
2019-03-05T19:51:09.696Z,5.24
2019-03-05T19:56:13.280Z,5.36
2019-03-05T20:01:18.464Z,5.72
2019-03-05T20:06:22.029Z,5.70
2019-03-05T20:11:25.604Z,5.48
2019-03-05T20:16:29.223Z,5.24
2019-03-05T20:21:32.808Z,5.27
2019-03-05T20:26:36.356Z,5.28
2019-03-05T20:31:39.890Z,5.13
2019-03-05T20:36:43.460Z,5.12
2019-03-05T20:41:47.282Z,5.22
2019-03-05T20:46:50.838Z,5.06
2019-03-05T20:51:54.539Z,5.08
2019-03-05T20:56:58.425Z,5.18
2019-03-05T21:02:02.065Z,5.21
2019-03-05T21:07:06.376Z,5.48
2019-03-05T21:12:10.268Z,5.48
2019-03-05T21:17:14.302Z,5.57
2019-03-05T21:22:19.088Z,5.92
2019-03-05T21:27:23.007Z,5.92
2019-03-05T21:32:26.942Z,5.86
2019-03-05T21:37:31.847Z,5.70
2019-03-05T21:42:35.955Z,5.98
2019-03-05T21:47:39.593Z,6.03
2019-03-05T21:52:43.395Z,6.12
2019-03-05T21:57:47.462Z,6.05
2019-03-05T22:02:51.529Z,5.77
2019-03-05T22:07:55.517Z,5.81
2019-03-05T22:12:59.087Z,5.88
2019-03-05T22:18:03.020Z,5.61
2019-03-05T22:23:06.819Z,5.47
2019-03-05T22:28:10.379Z,5.37
2019-03-05T22:33:13.910Z,5.51
2019-03-05T22:38:17.466Z,5.56
2019-03-05T22:43:21.018Z,5.60
2019-03-05T22:48:24.579Z,5.71
2019-03-05T22:53:28.120Z,5.51
2019-03-05T22:58:31.678Z,5.36
2019-03-05T23:03:35.277Z,5.58
2019-03-05T23:08:38.794Z,5.61
2019-03-05T23:13:42.478Z,5.60
2019-03-05T23:18:46.469Z,5.65
2019-03-05T23:23:50.010Z,5.72
2019-03-05T23:28:53.583Z,5.61
2019-03-05T23:33:57.248Z,5.56
2019-03-05T23:39:00.844Z,5.67
2019-03-05T23:44:04.853Z,5.71
2019-03-05T23:49:08.386Z,5.64
2019-03-05T23:54:12.045Z,5.88
2019-03-05T23:59:15.638Z,5.76
